Wetterdaten: Woche 23.11.15 - 29.11.15 (KW48)
Datum Zeit Temp. A. Feuchte A. Luftdruck Regen Wind Richtung Taupunkt Windchill Windben
23.11.2015 00:00 2,3 C 68 % 1014,4 hPa 0,0 l/m 2,9 km/h N -3,0 C 2,3 C 14,1 km/h
23.11.2015 01:00 2,1 C 70 % 1014,9 hPa 0,0 l/m 2,1 km/h N -2,8 C 2,1 C 11,3 km/h
23.11.2015 02:00 1,6 C 71 % 1015,6 hPa 0,0 l/m 0,4 km/h N -3,1 C 1,6 C 6,4 km/h
23.11.2015 03:00 0,1 C 73 % 1016,2 hPa 0,0 l/m 0,0 km/h N -4,2 C 0,1 C 0,4 km/h
23.11.2015 04:00 -1,8 C 78 % 1016,9 hPa 0,0 l/m 0,0 km/h N -5,2 C -1,8 C 0,0 km/h
23.11.2015 05:00 -2,7 C 81 % 1017,6 hPa 0,0 l/m 0,0 km/h N -5,6 C -2,7 C 0,0 km/h
23.11.2015 06:00 -3,2 C 82 % 1018,4 hPa 0,0 l/m 0,0 km/h N -5,8 C -3,2 C 0,0 km/h
23.11.2015 07:00 -3,2 C 83 % 1019,3 hPa 0,0 l/m 0,0 km/h N -5,6 C -3,2 C 0,0 km/h
23.11.2015 08:00 -2,5 C 83 % 1020,2 hPa 0,0 l/m 0,0 km/h N -4,9 C -2,5 C 0,4 km/h
23.11.2015 09:00 0,6 C 83 % 1021,0 hPa 0,0 l/m 0,2 km/h N -2,0 C 0,6 C 1,6 km/h
23.11.2015 10:00 4,0 C 72 % 1021,1 hPa 0,0 l/m 0,2 km/h N -0,7 C 4,0 C 3,2 km/h
23.11.2015 11:00 6,3 C 54 % 1020,9 hPa 0,0 l/m 5,2 km/h N -2,4 C 5,6 C 15,3 km/h
23.11.2015 12:00 6,2 C 56 % 1020,8 hPa 0,0 l/m 8,2 km/h N -1,9 C 4,7 C 20,1 km/h
23.11.2015 13:00 6,0 C 57 % 1021,1 hPa 0,0 l/m 9,9 km/h N -1,9 C 3,3 C 25,3 km/h
23.11.2015 14:00 6,0 C 54 % 1021,4 hPa 0,0 l/m 7,9 km/h N -2,6 C 4,7 C 25,0 km/h
23.11.2015 15:00 5,5 C 53 % 1022,3 hPa 0,0 l/m 5,1 km/h N -3,3 C 5,4 C 15,7 km/h
23.11.2015 16:00 4,5 C 57 % 1023,4 hPa 0,0 l/m 4,8 km/h N -3,4 C 4,5 C 17,3 km/h
23.11.2015 17:00 4,2 C 62 % 1024,6 hPa 0,0 l/m 5,2 km/h N -2,5 C 4,2 C 17,7 km/h
23.11.2015 18:00 3,3 C 65 % 1025,6 hPa 0,0 l/m 2,1 km/h N -2,7 C 3,3 C 10,4 km/h
23.11.2015 19:00 2,2 C 67 % 1026,1 hPa 0,0 l/m 0,1 km/h N -3,2 C 2,2 C 2,8 km/h
23.11.2015 20:00 1,3 C 69 % 1026,4 hPa 0,0 l/m 0,0 km/h N -3,7 C 1,3 C 1,2 km/h
23.11.2015 21:00 0,2 C 73 % 1026,8 hPa 0,0 l/m 0,0 km/h N -4,1 C 0,2 C 0,0 km/h
23.11.2015 22:00 -1,2 C 75 % 1026,7 hPa 0,0 l/m 0,0 km/h N -5,1 C -1,2 C 0,0 km/h
23.11.2015 23:00 -2,3 C 79 % 1027,1 hPa 0,0 l/m 0,0 km/h N -5,5 C -2,3 C 0,0 km/h
24.11.2015 00:00 -3,0 C 81 % 1027,3 hPa 0,0 l/m 0,0 km/h N -5,8 C -3,0 C 0,0 km/h
24.11.2015 01:00 -3,5 C 82 % 1027,2 hPa 0,0 l/m 0,0 km/h N -6,1 C -3,5 C 0,0 km/h
24.11.2015 02:00 -4,0 C 83 % 1027,2 hPa 0,0 l/m 0,0 km/h N -6,5 C -4,0 C 0,0 km/h
24.11.2015 03:00 -4,1 C 83 % 1027,0 hPa 0,0 l/m 0,0 km/h N -6,5 C -4,1 C 0,0 km/h
24.11.2015 04:00 -4,5 C 84 % 1027,1 hPa 0,0 l/m 0,0 km/h N -6,8 C -4,5 C 0,0 km/h
24.11.2015 05:00 -4,5 C 84 % 1027,3 hPa 0,0 l/m 0,0 km/h N -6,8 C -4,5 C 0,0 km/h
24.11.2015 06:00 -4,3 C 84 % 1027,4 hPa 0,0 l/m 0,0 km/h N -6,6 C -4,3 C 0,8 km/h
24.11.2015 07:00 -3,9 C 84 % 1027,3 hPa 0,0 l/m 0,1 km/h N -6,2 C -3,9 C 0,8 km/h
24.11.2015 08:00 -3,7 C 84 % 1027,7 hPa 0,0 l/m 0,0 km/h N -6,0 C -3,7 C 0,0 km/h
24.11.2015 09:00 -1,5 C 83 % 1027,5 hPa 0,0 l/m 0,0 km/h N -4,0 C -1,5 C 0,4 km/h
24.11.2015 10:00 1,1 C 83 % 1027,0 hPa 0,0 l/m 0,2 km/h N -1,4 C 1,1 C 3,2 km/h
24.11.2015 11:00 3,3 C 73 % 1026,1 hPa 0,0 l/m 0,3 km/h N -1,1 C 3,3 C 4,4 km/h
24.11.2015 12:00 5,8 C 56 % 1025,3 hPa 0,0 l/m 0,6 km/h N -2,3 C 5,8 C 5,6 km/h
24.11.2015 13:00 6,0 C 53 % 1024,4 hPa 0,0 l/m 0,7 km/h N -2,9 C 6,0 C 6,8 km/h
24.11.2015 14:00 5,7 C 55 % 1023,5 hPa 0,0 l/m 0,5 km/h N -2,7 C 5,7 C 4,8 km/h
24.11.2015 15:00 4,7 C 58 % 1023,1 hPa 0,0 l/m 0,2 km/h N -2,9 C 4,7 C 4,8 km/h
24.11.2015 16:00 2,7 C 62 % 1022,9 hPa 0,0 l/m 0,0 km/h N -3,8 C 2,7 C 0,0 km/h
24.11.2015 17:00 0,4 C 70 % 1022,5 hPa 0,0 l/m 0,0 km/h N -4,5 C 0,4 C 0,0 km/h
24.11.2015 18:00 -1,2 C 74 % 1022,2 hPa 0,0 l/m 0,0 km/h N -5,2 C -1,2 C 0,0 km/h
24.11.2015 19:00 -2,4 C 78 % 1021,7 hPa 0,0 l/m 0,0 km/h N -5,8 C -2,4 C 0,0 km/h
24.11.2015 20:00 -3,5 C 81 % 1021,1 hPa 0,0 l/m 0,0 km/h N -6,3 C -3,5 C 0,0 km/h
24.11.2015 21:00 -4,2 C 82 % 1020,5 hPa 0,0 l/m 0,0 km/h N -6,8 C -4,2 C 0,0 km/h
24.11.2015 22:00 -4,8 C 83 % 1019,9 hPa 0,0 l/m 0,0 km/h N -7,2 C -4,8 C 0,0 km/h
24.11.2015 23:00 -5,3 C 83 % 1019,1 hPa 0,0 l/m 0,0 km/h N -7,8 C -5,3 C 0,0 km/h
25.11.2015 00:00 -5,8 C 84 % 1018,0 hPa 0,0 l/m 0,0 km/h N -8,1 C -5,8 C 0,0 km/h
25.11.2015 01:00 -6,2 C 84 % 1017,0 hPa 0,0 l/m 0,0 km/h N -8,5 C -6,2 C 0,0 km/h
25.11.2015 02:00 -6,7 C 84 % 1016,5 hPa 0,0 l/m 0,0 km/h N -8,9 C -6,7 C 0,0 km/h
25.11.2015 03:00 -6,9 C 84 % 1015,7 hPa 0,0 l/m 0,0 km/h N -9,2 C -6,9 C 0,4 km/h
25.11.2015 04:00 -7,2 C 84 % 1015,1 hPa 0,0 l/m 0,0 km/h N -9,5 C -7,2 C 0,0 km/h
25.11.2015 05:00 -7,6 C 84 % 1014,6 hPa 0,0 l/m 0,0 km/h N -9,8 C -7,6 C 0,0 km/h
25.11.2015 06:00 -7,7 C 84 % 1014,2 hPa 0,0 l/m 0,0 km/h N -9,9 C -7,7 C 0,0 km/h
25.11.2015 07:00 -7,8 C 86 % 1014,1 hPa 0,0 l/m 0,0 km/h N -9,8 C -7,8 C 0,0 km/h
25.11.2015 08:00 -6,5 C 84 % 1013,8 hPa 0,0 l/m 0,0 km/h N -8,8 C -6,5 C 0,0 km/h
25.11.2015 09:00 -3,3 C 83 % 1013,4 hPa 0,0 l/m 0,2 km/h N -5,8 C -3,3 C 0,8 km/h
25.11.2015 10:00 -0,6 C 83 % 1012,8 hPa 0,0 l/m 0,0 km/h N -3,1 C -0,6 C 0,8 km/h
25.11.2015 11:00 1,1 C 83 % 1012,0 hPa 0,0 l/m 0,1 km/h N -1,4 C 1,1 C 2,4 km/h
25.11.2015 12:00 2,2 C 78 % 1011,3 hPa 0,0 l/m 0,1 km/h N -1,3 C 2,2 C 2,0 km/h
25.11.2015 13:00 3,0 C 73 % 1010,8 hPa 0,0 l/m 0,5 km/h N -1,4 C 3,0 C 4,4 km/h
25.11.2015 14:00 3,1 C 68 % 1010,4 hPa 0,0 l/m 1,6 km/h N -2,1 C 3,1 C 7,2 km/h
25.11.2015 15:00 2,7 C 70 % 1010,2 hPa 0,0 l/m 0,6 km/h N -2,4 C 2,7 C 6,8 km/h
25.11.2015 16:00 1,9 C 72 % 1009,8 hPa 0,0 l/m 0,6 km/h N -2,7 C 1,9 C 6,0 km/h
25.11.2015 17:00 1,5 C 74 % 1009,3 hPa 0,0 l/m 0,0 km/h N -2,8 C 1,5 C 1,6 km/h
25.11.2015 18:00 1,3 C 75 % 1009,2 hPa 0,0 l/m 0,1 km/h N -2,7 C 1,3 C 2,0 km/h
25.11.2015 19:00 1,2 C 76 % 1009,1 hPa 0,0 l/m 0,2 km/h N -2,6 C 1,2 C 4,4 km/h
25.11.2015 20:00 1,3 C 76 % 1008,8 hPa 0,0 l/m 0,2 km/h N -2,5 C 1,3 C 3,6 km/h
25.11.2015 21:00 1,3 C 76 % 1008,7 hPa 0,0 l/m 0,1 km/h N -2,5 C 1,3 C 2,8 km/h
25.11.2015 22:00 1,3 C 77 % 1008,5 hPa 0,0 l/m 0,0 km/h N -2,3 C 1,3 C 0,8 km/h
25.11.2015 23:00 0,9 C 80 % 1008,2 hPa 0,0 l/m 0,0 km/h N -2,2 C 0,9 C 0,0 km/h
26.11.2015 00:00 0,6 C 82 % 1008,2 hPa 0,0 l/m 0,0 km/h N -2,2 C 0,6 C 0,0 km/h
26.11.2015 01:00 0,3 C 83 % 1007,8 hPa 0,0 l/m 0,0 km/h N -2,2 C 0,3 C 0,0 km/h
26.11.2015 02:00 0,2 C 83 % 1007,8 hPa 0,0 l/m 0,0 km/h N -2,3 C 0,2 C 0,0 km/h
26.11.2015 03:00 0,2 C 83 % 1007,8 hPa 0,0 l/m 0,0 km/h N -2,3 C 0,2 C 0,0 km/h
26.11.2015 04:00 0,3 C 83 % 1008,0 hPa 0,0 l/m 0,0 km/h N -2,2 C 0,3 C 0,0 km/h
26.11.2015 05:00 0,2 C 83 % 1008,3 hPa 0,0 l/m 0,0 km/h N -2,3 C 0,2 C 0,0 km/h
26.11.2015 06:00 -0,1 C 83 % 1008,7 hPa 0,0 l/m 0,0 km/h N -2,7 C -0,1 C 0,0 km/h
26.11.2015 07:00 -0,3 C 83 % 1009,1 hPa 0,0 l/m 0,2 km/h N -2,8 C -0,3 C 1,2 km/h
26.11.2015 08:00 -0,1 C 83 % 1009,9 hPa 0,0 l/m 1,9 km/h N -2,7 C -0,1 C 5,6 km/h
26.11.2015 09:00 0,3 C 82 % 1010,3 hPa 0,0 l/m 3,5 km/h N -2,4 C 0,3 C 8,9 km/h
26.11.2015 10:00 0,8 C 83 % 1010,7 hPa 0,5 l/m 6,2 km/h N -1,8 C 0,6 C 16,1 km/h
26.11.2015 11:00 1,4 C 83 % 1010,9 hPa 0,8 l/m 6,8 km/h N -1,1 C 1,0 C 17,3 km/h
26.11.2015 12:00 2,0 C 84 % 1011,3 hPa 0,8 l/m 8,9 km/h N -0,4 C -0,2 C 20,5 km/h
26.11.2015 13:00 2,5 C 83 % 1011,8 hPa 0,0 l/m 9,7 km/h N -0,1 C -0,5 C 20,9 km/h
26.11.2015 14:00 2,7 C 83 % 1012,5 hPa 0,0 l/m 9,1 km/h N 0,1 C 0,3 C 20,5 km/h
26.11.2015 15:00 2,7 C 83 % 1013,0 hPa 0,0 l/m 8,4 km/h N 0,1 C 0,9 C 18,9 km/h
26.11.2015 16:00 2,9 C 83 % 1013,7 hPa 0,0 l/m 10,0 km/h N 0,3 C -0,2 C 22,5 km/h
26.11.2015 17:00 3,0 C 83 % 1014,7 hPa 0,0 l/m 8,1 km/h N 0,4 C 1,6 C 20,1 km/h
26.11.2015 18:00 3,2 C 82 % 1015,5 hPa 0,0 l/m 7,0 km/h N 0,4 C 2,6 C 16,5 km/h
26.11.2015 19:00 3,2 C 82 % 1016,2 hPa 0,0 l/m 7,1 km/h N 0,4 C 2,5 C 19,7 km/h
26.11.2015 20:00 3,3 C 82 % 1017,0 hPa 0,0 l/m 7,8 km/h N 0,5 C 2,0 C 17,7 km/h
26.11.2015 21:00 3,3 C 82 % 1017,7 hPa 0,0 l/m 8,0 km/h N 0,6 C 1,9 C 20,5 km/h
26.11.2015 22:00 3,5 C 82 % 1018,0 hPa 0,0 l/m 7,4 km/h N 0,7 C 2,5 C 17,3 km/h
26.11.2015 23:00 3,4 C 82 % 1018,4 hPa 0,0 l/m 8,1 km/h N 0,6 C 1,8 C 18,5 km/h
27.11.2015 00:00 3,5 C 82 % 1018,4 hPa 0,0 l/m 9,4 km/h N 0,7 C 0,9 C 21,3 km/h
27.11.2015 01:00 3,6 C 81 % 1018,4 hPa 0,0 l/m 11,1 km/h N 0,6 C -0,3 C 23,7 km/h
27.11.2015 02:00 3,5 C 81 % 1018,6 hPa 0,0 l/m 9,8 km/h N 0,6 C 0,6 C 22,5 km/h
27.11.2015 03:00 3,4 C 81 % 1018,5 hPa 0,0 l/m 8,1 km/h N 0,5 C 1,9 C 19,3 km/h
27.11.2015 04:00 3,4 C 81 % 1018,5 hPa 0,0 l/m 7,9 km/h N 0,4 C 2,0 C 19,3 km/h
27.11.2015 05:00 3,4 C 81 % 1018,4 hPa 0,0 l/m 6,5 km/h N 0,5 C 3,0 C 18,1 km/h
27.11.2015 06:00 3,4 C 81 % 1018,4 hPa 0,0 l/m 8,2 km/h N 0,4 C 1,8 C 19,7 km/h
27.11.2015 07:00 3,3 C 80 % 1018,6 hPa 0,0 l/m 6,3 km/h N 0,2 C 3,1 C 16,9 km/h
27.11.2015 08:00 3,3 C 80 % 1018,8 hPa 0,0 l/m 6,1 km/h N 0,2 C 3,3 C 14,9 km/h
27.11.2015 09:00 3,7 C 79 % 1018,7 hPa 0,0 l/m 6,7 km/h N 0,4 C 3,4 C 15,3 km/h
27.11.2015 10:00 3,9 C 77 % 1018,9 hPa 0,0 l/m 7,3 km/h N 0,2 C 3,0 C 19,3 km/h
27.11.2015 11:00 3,8 C 77 % 1018,4 hPa 0,0 l/m 6,7 km/h N 0,2 C 3,3 C 16,5 km/h
27.11.2015 12:00 3,6 C 79 % 1017,7 hPa 0,0 l/m 6,4 km/h N 0,3 C 3,4 C 14,5 km/h
27.11.2015 13:00 3,7 C 79 % 1017,3 hPa 0,0 l/m 5,7 km/h N 0,4 C 3,4 C 14,1 km/h
27.11.2015 14:00 3,5 C 80 % 1017,0 hPa 0,0 l/m 3,4 km/h N 0,3 C 3,5 C 10,1 km/h
27.11.2015 15:00 3,5 C 79 % 1016,6 hPa 0,0 l/m 3,8 km/h N 0,2 C 3,5 C 10,1 km/h
27.11.2015 16:00 3,4 C 80 % 1016,5 hPa 0,0 l/m 3,3 km/h N 0,1 C 3,4 C 8,0 km/h
27.11.2015 17:00 3,3 C 80 % 1016,3 hPa 0,0 l/m 4,9 km/h N 0,1 C 3,3 C 11,7 km/h
27.11.2015 18:00 3,2 C 80 % 1016,1 hPa 0,0 l/m 4,2 km/h N 0,1 C 3,2 C 11,3 km/h
27.11.2015 19:00 3,0 C 81 % 1015,9 hPa 0,0 l/m 2,7 km/h N 0,1 C 3,0 C 6,8 km/h
27.11.2015 20:00 2,9 C 80 % 1015,7 hPa 0,0 l/m 1,4 km/h N -0,1 C 2,9 C 6,4 km/h
27.11.2015 21:00 2,8 C 79 % 1015,2 hPa 0,0 l/m 1,4 km/h N -0,4 C 2,8 C 6,8 km/h
27.11.2015 22:00 2,8 C 79 % 1014,8 hPa 0,0 l/m 0,7 km/h N -0,5 C 2,8 C 4,0 km/h
27.11.2015 23:00 2,7 C 81 % 1014,5 hPa 0,0 l/m 1,3 km/h N -0,2 C 2,7 C 5,2 km/h
28.11.2015 00:00 2,4 C 82 % 1013,8 hPa 0,0 l/m 1,4 km/h N -0,4 C 2,4 C 5,6 km/h
28.11.2015 01:00 2,3 C 82 % 1012,8 hPa 0,0 l/m 3,7 km/h N -0,5 C 2,3 C 9,7 km/h
28.11.2015 02:00 2,1 C 82 % 1012,8 hPa 0,0 l/m 1,4 km/h N -0,6 C 2,1 C 4,8 km/h
28.11.2015 03:00 2,1 C 82 % 1012,6 hPa 0,0 l/m 0,2 km/h N -0,6 C 2,1 C 2,0 km/h
28.11.2015 04:00 2,0 C 82 % 1012,0 hPa 0,0 l/m 0,3 km/h N -0,7 C 2,0 C 3,6 km/h
28.11.2015 05:00 1,9 C 83 % 1011,6 hPa 0,0 l/m 2,8 km/h N -0,8 C 1,9 C 7,6 km/h
28.11.2015 06:00 2,0 C 82 % 1011,4 hPa 0,0 l/m 2,9 km/h N -0,7 C 2,0 C 9,7 km/h
28.11.2015 07:00 2,5 C 81 % 1011,5 hPa 0,0 l/m 2,3 km/h N -0,5 C 2,5 C 8,9 km/h
28.11.2015 08:00 3,3 C 76 % 1011,8 hPa 0,0 l/m 5,1 km/h N -0,5 C 2,9 C 16,1 km/h
28.11.2015 09:00 3,7 C 73 % 1011,4 hPa 0,0 l/m 11,3 km/h N -0,6 C -0,2 C 33,0 km/h
28.11.2015 10:00 3,9 C 73 % 1011,3 hPa 0,0 l/m 14,7 km/h N -0,5 C -1,9 C 29,3 km/h
28.11.2015 11:00 4,3 C 72 % 1010,8 hPa 0,0 l/m 10,2 km/h N -0,4 C 1,2 C 25,3 km/h
28.11.2015 12:00 4,6 C 70 % 1010,9 hPa 0,0 l/m 11,0 km/h N -0,5 C 1,0 C 27,8 km/h
28.11.2015 13:00 4,8 C 66 % 1010,9 hPa 0,0 l/m 12,9 km/h N -1,2 C -0,0 C 34,6 km/h
28.11.2015 14:00 4,8 C 64 % 1011,1 hPa 0,0 l/m 16,1 km/h N -1,4 C -1,6 C 43,5 km/h
28.11.2015 15:00 4,6 C 66 % 1011,6 hPa 0,0 l/m 14,4 km/h N -1,3 C -1,1 C 32,6 km/h
28.11.2015 16:00 4,6 C 69 % 1012,4 hPa 0,0 l/m 13,5 km/h N -0,6 C -0,6 C 33,4 km/h
28.11.2015 17:00 4,5 C 74 % 1013,1 hPa 0,0 l/m 15,9 km/h N 0,3 C -1,9 C 38,2 km/h
28.11.2015 18:00 4,6 C 75 % 1013,5 hPa 0,0 l/m 17,0 km/h N 0,6 C -2,4 C 41,8 km/h
28.11.2015 19:00 4,6 C 76 % 1014,5 hPa 0,0 l/m 13,8 km/h N 0,6 C -0,8 C 34,6 km/h
28.11.2015 20:00 4,5 C 75 % 1015,4 hPa 0,0 l/m 14,1 km/h N 0,5 C -1,0 C 32,6 km/h
28.11.2015 21:00 4,7 C 75 % 1016,6 hPa 0,0 l/m 14,2 km/h N 0,6 C -0,8 C 37,0 km/h
28.11.2015 22:00 4,8 C 73 % 1017,6 hPa 0,0 l/m 13,2 km/h N 0,4 C -0,2 C 34,6 km/h
28.11.2015 23:00 4,3 C 75 % 1018,5 hPa 0,0 l/m 11,6 km/h N 0,3 C 0,3 C 28,6 km/h
29.11.2015 00:00 4,3 C 75 % 1019,1 hPa 0,0 l/m 11,6 km/h N 0,3 C 0,2 C 25,3 km/h
29.11.2015 01:00 4,7 C 74 % 1019,5 hPa 0,0 l/m 12,3 km/h N 0,5 C 0,3 C 31,4 km/h
29.11.2015 02:00 4,7 C 67 % 1019,5 hPa 0,0 l/m 11,4 km/h N -0,9 C 0,8 C 28,6 km/h
29.11.2015 03:00 4,4 C 72 % 1019,9 hPa 0,0 l/m 12,5 km/h N -0,2 C -0,2 C 31,4 km/h
29.11.2015 04:00 4,2 C 73 % 1019,9 hPa 0,0 l/m 7,8 km/h N -0,2 C 2,9 C 23,3 km/h
29.11.2015 05:00 4,3 C 70 % 1019,9 hPa 0,0 l/m 8,7 km/h N -0,7 C 2,4 C 25,8 km/h
29.11.2015 06:00 4,2 C 67 % 1019,8 hPa 0,0 l/m 6,4 km/h N -1,5 C 3,4 C 20,1 km/h
29.11.2015 07:00 4,6 C 64 % 1019,8 hPa 0,0 l/m 8,4 km/h N -1,6 C 2,9 C 25,3 km/h
29.11.2015 08:00 5,5 C 59 % 1019,8 hPa 0,0 l/m 8,6 km/h N -1,8 C 3,7 C 27,4 km/h
29.11.2015 09:00 7,1 C 52 % 1019,1 hPa 0,0 l/m 9,2 km/h N -2,2 C 4,9 C 25,8 km/h
29.11.2015 10:00 8,8 C 42 % 1018,4 hPa 0,0 l/m 11,5 km/h N -3,3 C 5,4 C 32,6 km/h
29.11.2015 11:00 9,9 C 40 % 1017,2 hPa 0,0 l/m 12,4 km/h N -3,1 C 6,2 C 31,4 km/h
29.11.2015 12:00 10,3 C 42 % 1017,1 hPa 0,0 l/m 10,5 km/h N -2,0 C 7,7 C 26,2 km/h
29.11.2015 13:00 9,1 C 50 % 1017,1 hPa 0,0 l/m 8,9 km/h N -0,8 C 7,4 C 28,5 km/h
29.11.2015 14:00 8,3 C 61 % 1017,2 hPa 0,0 l/m 9,8 km/h N 1,1 C 5,8 C 29,0 km/h
29.11.2015 15:00 8,1 C 67 % 1017,2 hPa 0,0 l/m 10,4 km/h N 2,2 C 5,3 C 29,0 km/h
29.11.2015 16:00 7,8 C 70 % 1016,9 hPa 0,0 l/m 11,7 km/h N 2,6 C 4,1 C 33,4 km/h
29.11.2015 17:00 7,9 C 72 % 1017,0 hPa 0,0 l/m 12,5 km/h N 3,2 C 3,8 C 35,4 km/h
29.11.2015 18:00 8,1 C 74 % 1017,0 hPa 0,0 l/m 11,6 km/h N 3,6 C 4,6 C 34,6 km/h
29.11.2015 19:00 8,6 C 72 % 1017,4 hPa 0,0 l/m 10,8 km/h N 3,9 C 5,7 C 29,8 km/h
29.11.2015 20:00 9,4 C 71 % 1017,1 hPa 0,0 l/m 12,9 km/h N 4,4 C 5,4 C 35,8 km/h
29.11.2015 21:00 9,9 C 70 % 1016,5 hPa 0,0 l/m 13,0 km/h N 4,7 C 5,9 C 35,8 km/h
29.11.2015 22:00 10,6 C 67 % 1015,2 hPa 0,0 l/m 20,8 km/h N 4,7 C 3,9 C 46,7 km/h
29.11.2015 23:00 11,4 C 62 % 1014,3 hPa 0,0 l/m 25,2 km/h N 4,4 C 3,7 C 60,3 km/h
Min-Datum _ 25.11.15 29.11.15 26.11.15 - 23.11.15 - 25.11.15 25.11.15 23.11.15
_ Min-Zeit 07:30 11:00 01:45 - 02:45 - 07:30 07:30 03:00
Minimum _ -7,9 C 39 % 1007,7 hPa - 0,0 km/h - -10,1 C -7,9 C 0,0 km/h
Max-Datum _ 29.11.15 25.11.15 24.11.15 26.11.15 29.11.15 - 29.11.15 29.11.15 29.11.15
_ Max-Zeit 23:45 07:15 08:30 11:15 23:45 - 21:30 13:00 23:45
Maximum _ 11,7 C 92 % 1027,8 hPa 0,8 l/m 26,3 km/h
N
- 4,8 C 8,8 C 69,2 km/h
N
Durchschnitt _ 2,1 C 75 % 1016,9 hPa #2,1 l/m 4,9 km/h N -2,0 C 0,9 C 13,2 km/h